Time;durP1;ratioP1;P1;durP2;ratioP2;P2;SDS_P1;SDS_P2;PMS_P1;PMS_P2;Temp;Humidity;BMP_temperature;BMP_pressure;BME280_temperature;BME280_humidity;BME280_pressure;Samples;Min_cycle;Max_cycle;Signal;HPM_P1;HPM_P2
2023/02/01 00:02:20;;;;;;;20.67;4.10;;;7.20;99.90;;;;;;4936649;28;95691;-74
2023/02/01 00:04:47;;;;;;;18.55;3.38;;;7.20;99.90;;;;;;4936208;28;92564;-74
2023/02/01 00:07:14;;;;;;;18.92;3.38;;;7.20;99.90;;;;;;4936874;28;92737;-74
2023/02/01 00:09:41;;;;;;;19.98;3.88;;;7.20;99.90;;;;;;4936221;28;95729;-74
2023/02/01 00:12:08;;;;;;;18.17;2.92;;;7.20;99.90;;;;;;4937920;28;95211;-74
2023/02/01 00:14:38;;;;;;;15.75;2.70;;;7.20;99.90;;;;;;4935900;28;97743;-75
2023/02/01 00:17:08;;;;;;;19.15;3.70;;;7.20;99.90;;;;;;4936328;28;92530;-74
2023/02/01 00:19:35;;;;;;;15.85;3.00;;;7.20;99.90;;;;;;4937549;28;93284;-74
2023/02/01 00:22:02;;;;;;;20.23;3.80;;;7.20;99.90;;;;;;4937516;28;92473;-74
2023/02/01 00:24:30;;;;;;;15.32;3.17;;;7.30;99.90;;;;;;4920420;28;92464;-74
2023/02/01 00:26:57;;;;;;;15.95;2.97;;;7.30;99.90;;;;;;4936749;28;91741;-74
2023/02/01 00:29:24;;;;;;;14.82;3.47;;;7.30;99.90;;;;;;4935969;28;93099;-74
2023/02/01 00:31:51;;;;;;;20.20;3.67;;;7.30;99.90;;;;;;4937305;28;92866;-74
2023/02/01 00:34:20;;;;;;;17.83;3.15;;;7.40;99.90;;;;;;4919086;28;94949;-74
2023/02/01 00:36:47;;;;;;;21.88;3.78;;;7.40;99.90;;;;;;4919534;28;100150;-74
2023/02/01 00:39:15;;;;;;;15.18;3.58;;;7.40;99.90;;;;;;4935925;28;95934;-74
2023/02/01 00:41:43;;;;;;;15.05;3.30;;;7.40;99.90;;;;;;4919685;28;95883;-74
2023/02/01 00:44:10;;;;;;;15.65;2.90;;;7.40;99.90;;;;;;4935723;28;92983;-74
2023/02/01 00:46:37;;;;;;;24.60;4.38;;;7.40;99.90;;;;;;4937253;28;92531;-74
2023/02/01 00:49:07;;;;;;;15.90;3.67;;;7.40;99.90;;;;;;4919815;28;95699;-74
2023/02/01 00:51:34;;;;;;;15.75;3.40;;;7.50;99.90;;;;;;4937147;28;93271;-74
2023/02/01 00:54:01;;;;;;;15.50;3.30;;;7.50;99.90;;;;;;4937077;28;92504;-74
2023/02/01 00:56:29;;;;;;;12.05;3.35;;;7.40;99.90;;;;;;4935784;28;92540;-74
2023/02/01 00:58:56;;;;;;;23.25;3.88;;;7.50;99.90;;;;;;4934118;28;97932;-74
2023/02/01 01:01:26;;;;;;;14.52;3.33;;;7.50;99.90;;;;;;4936627;28;95750;-74
2023/02/01 01:03:57;;;;;;;16.90;3.70;;;7.50;99.90;;;;;;4935443;28;92531;-74
2023/02/01 01:06:28;;;;;;;16.92;2.85;;;7.50;99.90;;;;;;4936774;28;92601;-74
2023/02/01 01:08:58;;;;;;;17.67;3.80;;;7.50;99.90;;;;;;4935252;28;95521;-74
2023/02/01 01:11:27;;;;;;;18.95;3.70;;;7.50;99.90;;;;;;4951522;28;93991;-74
2023/02/01 01:13:56;;;;;;;15.40;3.25;;;7.50;99.90;;;;;;4935470;28;92982;-74
2023/02/01 01:16:25;;;;;;;15.95;3.33;;;7.50;99.90;;;;;;4937200;28;91736;-74
2023/02/01 01:18:53;;;;;;;16.90;2.97;;;7.50;99.90;;;;;;4951399;28;95790;-74
2023/02/01 01:21:23;;;;;;;17.73;3.38;;;7.50;99.90;;;;;;4919868;28;95835;-74
2023/02/01 01:23:50;;;;;;;18.95;4.13;;;7.50;99.90;;;;;;4935203;28;94879;-74
2023/02/01 01:26:20;;;;;;;16.88;3.20;;;7.50;99.90;;;;;;4951767;28;92528;-74
2023/02/01 01:28:47;;;;;;;14.48;3.60;;;7.50;99.90;;;;;;4936022;28;94252;-74
2023/02/01 01:31:16;;;;;;;16.63;3.38;;;7.50;99.90;;;;;;4936832;28;92982;-74
2023/02/01 01:33:44;;;;;;;15.25;2.72;;;7.50;99.90;;;;;;4935018;28;92496;-74
2023/02/01 01:36:12;;;;;;;13.43;2.58;;;7.50;99.90;;;;;;4935067;28;92551;-74
2023/02/01 01:38:40;;;;;;;14.05;3.17;;;7.50;99.90;;;;;;4934910;28;96204;-74
2023/02/01 01:41:11;;;;;;;22.58;3.63;;;7.60;99.90;;;;;;4935453;28;95600;-74
2023/02/01 01:43:56;;;;;;;16.73;3.10;;;7.60;99.90;;;;;;4935271;28;93148;-74
2023/02/01 01:46:34;;;;;;;15.75;3.33;;;7.70;99.90;;;;;;4935110;28;92924;-74
2023/02/01 01:49:05;;;;;;;14.50;3.85;;;7.70;99.90;;;;;;4933533;28;98644;-74
2023/02/01 01:51:37;;;;;;;15.52;3.67;;;7.60;99.90;;;;;;4934947;28;98096;-74
2023/02/01 01:54:12;;;;;;;13.20;3.22;;;7.70;99.90;;;;;;4935090;28;92441;-74
2023/02/01 01:56:43;;;;;;;16.35;4.18;;;7.70;99.90;;;;;;4935831;28;92448;-74
2023/02/01 01:59:11;;;;;;;24.30;4.05;;;7.70;99.90;;;;;;4938675;28;95598;-74
2023/02/01 02:01:38;;;;;;;20.55;3.50;;;7.70;99.90;;;;;;4922427;28;95701;-74
2023/02/01 02:04:06;;;;;;;15.65;4.03;;;7.70;99.90;;;;;;4938222;28;92953;-74
2023/02/01 02:06:39;;;;;;;21.85;4.55;;;7.70;99.90;;;;;;4922720;28;91820;-74
2023/02/01 02:09:06;;;;;;;18.42;3.60;;;7.80;99.90;;;;;;4938083;28;95696;-74
2023/02/01 02:11:33;;;;;;;17.23;4.05;;;7.80;99.90;;;;;;4938064;28;95856;-74
2023/02/01 02:14:03;;;;;;;19.92;3.90;;;7.80;99.90;;;;;;4920967;28;94896;-74
2023/02/01 02:16:48;;;;;;;15.27;3.22;;;7.70;99.90;;;;;;4954580;28;92507;-74
2023/02/01 02:19:34;;;;;;;16.90;3.60;;;7.70;99.90;;;;;;4938238;28;96058;-74
2023/02/01 02:22:04;;;;;;;12.52;2.88;;;7.70;99.90;;;;;;4939561;28;93410;-74
2023/02/01 02:25:07;;;;;;;18.13;3.83;;;7.60;99.90;;;;;;4937889;28;92499;-74
2023/02/01 02:27:50;;;;;;;11.40;2.73;;;7.70;99.90;;;;;;4939787;28;92449;-74
2023/02/01 02:30:44;;;;;;;16.55;3.30;;;7.60;99.90;;;;;;4921695;28;95896;-73
2023/02/01 02:33:29;;;;;;;16.15;2.78;;;7.60;99.90;;;;;;4938368;28;95743;-74
2023/02/01 02:36:01;;;;;;;16.80;3.38;;;7.60;99.90;;;;;;4937843;28;92476;-74
2023/02/01 02:39:00;;;;;;;20.05;3.25;;;7.60;99.90;;;;;;4937940;28;92450;-74
2023/02/01 02:47:25;;;;;;;14.32;3.25;;;7.50;99.90;;;;;;4953788;28;92756;-74
2023/02/01 03:04:30;;;;;;;21.58;3.67;;;7.50;99.90;;;;;;4939891;28;95732;-74
2023/02/01 03:06:57;;;;;;;12.70;3.20;;;7.50;99.90;;;;;;4953335;28;95743;-74
2023/02/01 03:09:30;;;;;;;16.02;3.10;;;7.50;99.90;;;;;;4920262;28;94870;-73
2023/02/01 03:14:56;;;;;;;22.02;4.55;;;7.50;99.90;;;;;;4953462;28;95523;-73
2023/02/01 03:17:27;;;;;;;;;;;7.50;99.90;;;;;;4937685;28;95327;-74
2023/02/01 03:19:58;;;;;;;13.40;3.13;;;7.40;99.90;;;;;;4954832;28;93012;-73
2023/02/01 03:22:31;;;;;;;12.20;3.65;;;7.40;99.90;;;;;;4953400;28;92442;-74
2023/02/01 03:25:07;;;;;;;19.80;3.83;;;7.40;99.90;;;;;;4936707;28;95973;-74
2023/02/01 03:27:41;;;;;;;16.85;3.60;;;7.50;99.90;;;;;;4937371;28;95519;-74
2023/02/01 03:30:20;;;;;;;19.83;3.95;;;7.50;99.90;;;;;;4936859;28;92588;-74
2023/02/01 03:33:00;;;;;;;17.25;4.20;;;7.50;99.90;;;;;;4937032;28;92512;-74
2023/02/01 03:35:52;;;;;;;17.05;3.88;;;7.50;99.90;;;;;;4919742;28;98580;-74
2023/02/01 03:38:38;;;;;;;16.40;3.20;;;7.60;99.90;;;;;;4953211;28;95408;-74
2023/02/01 03:41:18;;;;;;;13.93;3.10;;;7.50;99.90;;;;;;4936894;28;92541;-74
2023/02/01 03:43:56;;;;;;;18.48;3.45;;;7.50;99.90;;;;;;4953275;28;92473;-73
2023/02/01 03:46:37;;;;;;;17.83;4.28;;;7.50;99.90;;;;;;4936495;28;95788;-74
2023/02/01 03:49:08;;;;;;;16.13;3.92;;;7.50;99.90;;;;;;4936539;28;95363;-73
2023/02/01 03:51:40;;;;;;;18.38;3.15;;;7.50;99.90;;;;;;4936732;28;92620;-73
2023/02/01 03:54:13;;;;;;;16.23;2.63;;;7.50;99.90;;;;;;4921057;28;91779;-74
2023/02/01 03:56:44;;;;;;;19.25;3.47;;;7.50;99.90;;;;;;4936547;28;95847;-74
2023/02/01 03:59:13;;;;;;;21.17;4.25;;;7.50;99.90;;;;;;4936276;28;95442;-73
2023/02/01 04:01:41;;;;;;;14.38;4.20;;;7.50;99.90;;;;;;4919770;28;94891;-74
2023/02/01 04:04:09;;;;;;;19.33;3.00;;;7.50;99.90;;;;;;4935947;28;93274;-74
2023/02/01 04:06:37;;;;;;;13.52;2.83;;;7.50;99.90;;;;;;4952813;28;95190;-74
2023/02/01 04:09:05;;;;;;;11.50;3.50;;;7.50;99.90;;;;;;4920107;28;95406;-74
2023/02/01 04:11:32;;;;;;;25.83;3.67;;;7.50;99.90;;;;;;4937000;28;92979;-73
2023/02/01 04:14:03;;;;;;;16.52;4.22;;;7.60;99.90;;;;;;4920363;28;92434;-74
2023/02/01 04:16:32;;;;;;;21.27;3.67;;;7.60;99.90;;;;;;4937930;28;93280;-73
2023/02/01 04:18:59;;;;;;;14.98;4.47;;;7.60;99.90;;;;;;4919883;28;95862;-74
2023/02/01 04:21:27;;;;;;;17.02;3.63;;;7.60;99.90;;;;;;4920491;28;92365;-74
2023/02/01 04:23:54;;;;;;;19.75;3.40;;;7.70;99.90;;;;;;4952778;28;92663;-73
2023/02/01 04:26:21;;;;;;;19.45;3.95;;;7.70;99.90;;;;;;4934806;28;95720;-73
2023/02/01 04:28:48;;;;;;;21.25;3.75;;;7.70;99.90;;;;;;4937392;28;95430;-73
2023/02/01 04:31:16;;;;;;;20.33;4.10;;;7.70;99.90;;;;;;4937012;28;92426;-74
2023/02/01 04:33:44;;;;;;;15.27;3.72;;;7.60;99.90;;;;;;4952517;28;92468;-74
2023/02/01 04:36:10;;;;;;;20.25;4.00;;;7.70;99.90;;;;;;4935591;28;96228;-74
2023/02/01 04:38:37;;;;;;;14.40;3.22;;;7.70;99.90;;;;;;4952289;28;92895;-74
2023/02/01 04:41:04;;;;;;;18.20;4.32;;;7.60;99.90;;;;;;4919960;28;92933;-74
2023/02/01 04:43:31;;;;;;;13.60;3.95;;;7.60;99.90;;;;;;4936556;28;91777;-74
2023/02/01 04:45:58;;;;;;;19.83;3.78;;;7.60;99.90;;;;;;4935874;28;93236;-74
2023/02/01 04:48:25;;;;;;;17.30;2.92;;;7.60;99.90;;;;;;4935393;28;95807;-73
2023/02/01 04:50:52;;;;;;;19.95;3.47;;;7.60;99.90;;;;;;4934977;28;95461;-74
2023/02/01 04:53:19;;;;;;;12.68;3.80;;;7.60;99.90;;;;;;4951907;28;92445;-74
2023/02/01 04:55:49;;;;;;;17.40;3.83;;;7.60;99.90;;;;;;4935972;28;93287;-73
2023/02/01 04:58:16;;;;;;;24.70;4.18;;;7.60;99.90;;;;;;4936622;28;92439;-73
2023/02/01 05:00:43;;;;;;;23.08;3.33;;;7.60;99.90;;;;;;4919364;28;92636;-74
2023/02/01 05:03:10;;;;;;;22.20;3.55;;;7.60;99.90;;;;;;4936757;28;92490;-74
2023/02/01 05:05:37;;;;;;;17.63;3.63;;;7.70;99.90;;;;;;4952237;28;93005;-74
2023/02/01 05:08:04;;;;;;;17.98;3.53;;;7.70;99.90;;;;;;4936244;28;92933;-73
2023/02/01 05:10:31;;;;;;;22.40;3.53;;;7.70;99.90;;;;;;4951891;28;92550;-74
2023/02/01 05:15:45;;;;;;;9.98;3.15;;;7.70;99.90;;;;;;4935834;28;95652;-74
2023/02/01 05:18:13;;;;;;;15.73;3.63;;;7.70;99.90;;;;;;4934987;28;95650;-74
2023/02/01 05:20:40;;;;;;;20.20;3.88;;;7.70;99.90;;;;;;4937149;28;92442;-74
2023/02/01 05:23:07;;;;;;;23.20;3.42;;;7.70;99.90;;;;;;4936547;28;92465;-74
2023/02/01 05:25:34;;;;;;;17.52;3.03;;;7.70;99.90;;;;;;4935617;28;93709;-74
2023/02/01 05:28:00;;;;;;;20.27;3.88;;;7.70;99.90;;;;;;4935074;28;95698;-74
2023/02/01 05:30:27;;;;;;;13.88;3.45;;;7.70;99.90;;;;;;4918802;28;92416;-73
2023/02/01 05:32:55;;;;;;;18.50;4.25;;;7.70;99.90;;;;;;4935302;28;91851;-74
2023/02/01 05:35:22;;;;;;;22.10;3.75;;;7.70;99.90;;;;;;4918970;28;96230;-74
2023/02/01 05:37:48;;;;;;;15.88;3.83;;;7.70;99.90;;;;;;4936636;28;93040;-74
2023/02/01 05:40:16;;;;;;;18.42;2.88;;;7.70;99.90;;;;;;4933698;28;94992;-73
2023/02/01 05:42:43;;;;;;;15.63;3.47;;;7.70;99.90;;;;;;4936668;28;92446;-73
2023/02/01 05:45:10;;;;;;;13.88;3.25;;;7.70;99.90;;;;;;4934823;28;95768;-73
2023/02/01 05:47:37;;;;;;;18.30;4.78;;;7.60;99.90;;;;;;4935096;28;98221;-74
2023/02/01 05:50:06;;;;;;;16.70;3.15;;;7.50;99.90;;;;;;4936602;28;92422;-74
2023/02/01 05:52:33;;;;;;;20.80;4.20;;;7.50;99.90;;;;;;4936331;28;92477;-73
2023/02/01 05:55:00;;;;;;;22.27;4.13;;;7.40;99.90;;;;;;4951239;28;93316;-73
2023/02/01 05:57:26;;;;;;;16.45;3.78;;;7.50;99.90;;;;;;4918815;28;95472;-73
2023/02/01 05:59:53;;;;;;;14.40;3.45;;;7.50;99.90;;;;;;4918818;28;92428;-73
2023/02/01 06:02:21;;;;;;;21.40;3.50;;;7.50;99.90;;;;;;4918839;28;92650;-73
2023/02/01 06:04:48;;;;;;;16.50;3.10;;;7.50;99.90;;;;;;4933535;28;99494;-73
2023/02/01 06:07:15;;;;;;;14.98;3.60;;;7.60;99.90;;;;;;4934154;28;95351;-73
2023/02/01 06:09:42;;;;;;;14.68;2.78;;;7.60;99.90;;;;;;4936618;28;92765;-73
2023/02/01 06:12:09;;;;;;;17.33;4.32;;;7.70;99.90;;;;;;4918758;28;92574;-73
2023/02/01 06:14:36;;;;;;;16.08;4.25;;;7.70;99.90;;;;;;4935754;28;93353;-73
2023/02/01 06:17:05;;;;;;;9.88;2.40;;;7.80;99.90;;;;;;4934728;28;95640;-73
2023/02/01 06:19:32;;;;;;;11.30;3.22;;;7.70;99.90;;;;;;4934959;28;92458;-73
2023/02/01 06:21:59;;;;;;;13.38;3.90;;;7.70;99.90;;;;;;4934847;28;92295;-73
2023/02/01 06:24:26;;;;;;;14.82;3.95;;;7.80;99.90;;;;;;4934291;28;93127;-73
2023/02/01 06:26:53;;;;;;;11.88;3.50;;;7.80;99.90;;;;;;4936112;28;93108;-73
2023/02/01 06:29:20;;;;;;;12.25;3.15;;;7.80;99.90;;;;;;4917223;28;94955;-73
2023/02/01 06:31:47;;;;;;;19.15;3.30;;;7.90;99.90;;;;;;4934377;28;95238;-73
2023/02/01 06:34:14;;;;;;;9.35;2.42;;;7.90;99.90;;;;;;4935955;28;93557;-73
2023/02/01 06:36:41;;;;;;;9.85;3.25;;;7.90;99.90;;;;;;4935878;28;93754;-73
2023/02/01 06:39:08;;;;;;;16.27;2.90;;;7.90;99.90;;;;;;4934886;28;92477;-73
2023/02/01 06:41:35;;;;;;;18.90;3.47;;;7.90;99.90;;;;;;4950295;28;92642;-73
2023/02/01 06:44:02;;;;;;;15.23;3.38;;;7.90;99.90;;;;;;4938554;28;93313;-73
2023/02/01 06:46:29;;;;;;;17.92;3.35;;;7.90;99.90;;;;;;4938131;28;95003;-73
2023/02/01 06:48:56;;;;;;;18.63;3.28;;;7.90;99.90;;;;;;4937791;28;92468;-73
2023/02/01 06:51:28;;;;;;;15.90;3.08;;;7.80;99.90;;;;;;4939080;28;92478;-73
2023/02/01 06:53:56;;;;;;;14.63;2.95;;;7.80;99.90;;;;;;4952633;28;95910;-73
2023/02/01 06:56:23;;;;;;;15.18;3.60;;;7.80;99.90;;;;;;4953652;28;95454;-73
2023/02/01 06:58:50;;;;;;;23.40;3.67;;;7.70;99.90;;;;;;4938840;28;92534;-73
2023/02/01 07:01:18;;;;;;;10.68;3.60;;;7.80;99.90;;;;;;4937672;28;92556;-73
2023/02/01 07:03:50;;;;;;;18.73;4.03;;;7.80;99.90;;;;;;4937034;28;94506;-73
2023/02/01 07:06:18;;;;;;;17.27;3.20;;;7.80;99.90;;;;;;4938702;28;92895;-74
2023/02/01 07:08:45;;;;;;;16.85;3.53;;;7.80;99.90;;;;;;4937292;28;92478;-74
2023/02/01 07:11:13;;;;;;;11.77;2.88;;;7.80;99.90;;;;;;4938044;28;92177;-73
2023/02/01 07:13:41;;;;;;;14.07;3.13;;;7.80;99.90;;;;;;4936928;28;96032;-73
2023/02/01 07:16:14;;;;;;;15.90;2.92;;;7.90;99.90;;;;;;4938383;28;93043;-73
2023/02/01 07:18:41;;;;;;;13.95;3.15;;;7.90;99.90;;;;;;4937586;28;94867;-73
2023/02/01 07:21:09;;;;;;;11.95;3.47;;;8.00;99.90;;;;;;4938751;28;92478;-73
2023/02/01 07:23:36;;;;;;;17.83;4.13;;;8.00;99.90;;;;;;4952969;28;93246;-73
2023/02/01 07:26:06;;;;;;;22.52;5.07;;;8.00;99.90;;;;;;4938562;28;92914;-73
2023/02/01 07:28:35;;;;;;;14.30;3.30;;;8.00;99.90;;;;;;4953542;28;93051;-73
2023/02/01 07:31:07;;;;;;;13.48;2.80;;;8.00;99.90;;;;;;4936902;28;92499;-73
2023/02/01 07:33:34;;;;;;;25.42;3.65;;;8.00;99.90;;;;;;4937262;28;93405;-73
2023/02/01 07:36:04;;;;;;;10.45;2.67;;;8.00;99.90;;;;;;4953447;28;93058;-73
2023/02/01 07:38:32;;;;;;;19.65;3.50;;;8.00;99.90;;;;;;4936981;28;92498;-73
2023/02/01 07:41:01;;;;;;;15.02;3.42;;;8.10;99.90;;;;;;4953315;28;92454;-73
2023/02/01 07:43:28;;;;;;;12.93;2.92;;;8.10;99.90;;;;;;4935328;28;95699;-73
2023/02/01 07:45:57;;;;;;;21.02;4.15;;;8.10;99.90;;;;;;4938044;28;95411;-73
2023/02/01 07:48:25;;;;;;;18.42;3.60;;;8.10;99.90;;;;;;4938564;28;92466;-73
2023/02/01 07:51:06;;;;;;;22.27;3.88;;;8.20;99.90;;;;;;4936771;28;92451;-73
2023/02/01 07:53:34;;;;;;;17.60;4.03;;;8.20;99.90;;;;;;4952347;28;93343;-73
2023/02/01 07:56:16;;;;;;;18.48;3.55;;;8.20;99.90;;;;;;4937264;28;92491;-73
2023/02/01 07:58:48;;;;;;;16.20;3.58;;;8.20;99.90;;;;;;4953090;28;92577;-73
2023/02/01 08:01:26;;;;;;;13.52;2.90;;;8.20;99.90;;;;;;4953333;28;91787;-73
2023/02/01 08:03:56;;;;;;;18.83;3.85;;;8.20;99.90;;;;;;4936016;28;95971;-73
2023/02/01 08:06:24;;;;;;;20.08;3.70;;;8.20;99.90;;;;;;4937774;28;93052;-73
2023/02/01 08:08:53;;;;;;;21.15;3.50;;;8.20;99.90;;;;;;4936543;28;94853;-73
2023/02/01 08:11:21;;;;;;;18.88;3.40;;;8.20;99.90;;;;;;4937692;28;92412;-73
2023/02/01 08:13:48;;;;;;;14.07;2.40;;;8.20;99.90;;;;;;4935945;28;95694;-73
2023/02/01 08:16:17;;;;;;;13.52;2.90;;;8.30;99.90;;;;;;4936586;28;93372;-73
2023/02/01 08:18:44;;;;;;;15.00;3.83;;;8.30;99.90;;;;;;4937544;28;92561;-73
2023/02/01 08:21:14;;;;;;;15.80;3.60;;;8.40;99.90;;;;;;4952721;28;92352;-73
2023/02/01 08:23:42;;;;;;;16.98;3.65;;;8.40;99.90;;;;;;4937067;28;93392;-73
2023/02/01 08:26:13;;;;;;;15.07;3.72;;;8.40;99.90;;;;;;4936785;28;93046;-73
2023/02/01 08:28:43;;;;;;;12.80;2.67;;;8.40;99.90;;;;;;4936293;28;92500;-73
2023/02/01 08:31:16;;;;;;;15.55;3.25;;;8.50;99.90;;;;;;4937610;28;92457;-73
2023/02/01 08:33:47;;;;;;;12.63;3.03;;;8.50;99.90;;;;;;4936298;28;96058;-73
2023/02/01 08:36:14;;;;;;;14.77;3.28;;;8.50;99.90;;;;;;4937601;28;95459;-73
2023/02/01 08:38:41;;;;;;;19.60;3.83;;;8.50;99.90;;;;;;4952284;28;92496;-73
2023/02/01 08:41:13;;;;;;;16.70;3.33;;;8.50;99.90;;;;;;4936132;28;92562;-73
2023/02/01 08:43:41;;;;;;;22.85;4.20;;;8.50;99.90;;;;;;4952217;28;93287;-73
2023/02/01 08:46:09;;;;;;;14.05;2.92;;;8.50;99.90;;;;;;4935912;28;95944;-73
2023/02/01 08:48:37;;;;;;;14.38;3.08;;;8.50;99.90;;;;;;4935458;28;92373;-73
2023/02/01 08:51:07;;;;;;;17.23;3.35;;;8.50;99.90;;;;;;4936523;28;91703;-73
2023/02/01 08:53:34;;;;;;;11.52;2.88;;;8.60;99.90;;;;;;4935643;28;95699;-73
2023/02/01 08:56:01;;;;;;;15.75;3.42;;;8.60;99.90;;;;;;4937262;28;94538;-73
2023/02/01 08:58:28;;;;;;;13.70;3.05;;;8.60;99.90;;;;;;4934709;28;94805;-73
2023/02/01 09:00:55;;;;;;;19.75;3.03;;;8.60;99.90;;;;;;4919567;28;92592;-73
2023/02/01 09:03:22;;;;;;;16.05;3.55;;;8.70;99.90;;;;;;4936540;28;93091;-73
2023/02/01 09:05:49;;;;;;;17.83;3.22;;;8.70;99.90;;;;;;4936721;28;92949;-73
2023/02/01 09:08:19;;;;;;;13.93;2.92;;;8.70;99.90;;;;;;4935717;28;92555;-73
2023/02/01 09:10:47;;;;;;;13.38;3.53;;;8.70;99.90;;;;;;4935414;28;92560;-73
2023/02/01 09:13:14;;;;;;;17.38;3.47;;;8.70;99.90;;;;;;4935134;28;103419;-74
2023/02/01 09:15:41;;;;;;;12.90;3.70;;;8.80;99.90;;;;;;4935971;28;92947;-73
2023/02/01 09:18:08;;;;;;;17.48;4.03;;;8.80;99.90;;;;;;4935846;28;93192;-73
2023/02/01 09:20:36;;;;;;;17.58;3.20;;;8.80;99.90;;;;;;4935672;28;92486;-73
2023/02/01 09:23:03;;;;;;;12.65;3.85;;;8.80;99.90;;;;;;4950428;28;96647;-73
2023/02/01 09:25:30;;;;;;;13.60;4.05;;;8.80;99.90;;;;;;4934923;28;97949;-73
2023/02/01 09:27:57;;;;;;;15.93;3.38;;;8.80;99.90;;;;;;4935340;28;92429;-73
2023/02/01 09:30:24;;;;;;;11.68;3.55;;;8.80;99.90;;;;;;4919350;28;92630;-73
2023/02/01 09:32:51;;;;;;;12.90;3.55;;;8.80;99.90;;;;;;4935240;28;92924;-73
2023/02/01 09:35:18;;;;;;;18.60;4.35;;;8.80;99.90;;;;;;4935057;28;93608;-73
2023/02/01 09:37:45;;;;;;;16.15;3.20;;;8.80;99.90;;;;;;4935477;28;92495;-73
2023/02/01 09:40:17;;;;;;;18.77;4.28;;;8.80;99.90;;;;;;4936613;28;97573;-73
2023/02/01 09:42:55;;;;;;;20.80;3.13;;;8.80;99.90;;;;;;4936596;28;93208;-73
2023/02/01 09:45:54;;;;;;;15.07;3.35;;;8.80;99.90;;;;;;4951348;28;95800;-73
2023/02/01 09:48:27;;;;;;;16.48;3.03;;;8.80;99.90;;;;;;4935464;28;95443;-73
2023/02/01 09:50:59;;;;;;;12.50;3.05;;;8.80;99.90;;;;;;4934745;28;92500;-73
2023/02/01 09:53:38;;;;;;;15.93;3.67;;;8.70;99.90;;;;;;4936232;28;93125;-73
2023/02/01 09:56:12;;;;;;;14.43;3.08;;;8.80;99.90;;;;;;4934658;28;95552;-73
2023/02/01 09:58:51;;;;;;;21.10;3.67;;;8.80;99.90;;;;;;4951730;28;92484;-73
2023/02/01 10:01:24;;;;;;;19.52;3.53;;;8.80;99.90;;;;;;4936502;28;92971;-73
2023/02/01 10:04:05;;;;;;;12.77;2.77;;;8.80;99.90;;;;;;4936068;28;93656;-74
2023/02/01 10:06:58;;;;;;;13.27;3.45;;;8.70;99.90;;;;;;4937013;28;92920;-73
2023/02/01 10:09:57;;;;;;;14.40;3.53;;;8.70;99.90;;;;;;4936450;28;92906;-74
2023/02/01 10:12:44;;;;;;;14.77;3.53;;;8.70;99.90;;;;;;4919063;28;92871;-74
2023/02/01 10:15:22;;;;;;;12.55;3.13;;;8.60;99.90;;;;;;4933463;28;98111;-73
2023/02/01 10:18:11;;;;;;;11.77;3.10;;;8.60;99.90;;;;;;4935573;28;98040;-74
2023/02/01 10:20:56;;;;;;;15.70;3.42;;;8.60;99.90;;;;;;4938543;28;92706;-73
2023/02/01 10:23:53;;;;;;;13.55;3.35;;;8.50;99.90;;;;;;4938144;28;92498;-74
2023/02/01 10:26:24;;;;;;;9.48;2.53;;;8.50;99.90;;;;;;4938323;28;93335;-73
2023/02/01 10:28:54;;;;;;;11.13;3.50;;;8.40;99.90;;;;;;4939240;28;92880;-74
2023/02/01 10:31:25;;;;;;;14.73;3.22;;;8.40;99.90;;;;;;4939423;28;92487;-74
2023/02/01 10:34:01;;;;;;;17.17;3.50;;;8.40;99.90;;;;;;4954527;28;91721;-74
2023/02/01 10:36:39;;;;;;;14.25;3.03;;;8.40;99.90;;;;;;4921738;28;94365;-74
2023/02/01 10:39:11;;;;;;;14.02;2.95;;;8.30;99.90;;;;;;4938990;28;92950;-73
2023/02/01 10:41:40;;;;;;;13.23;3.50;;;8.30;99.90;;;;;;4938408;28;95412;-74
2023/02/01 10:44:16;;;;;;;12.90;2.92;;;8.30;99.90;;;;;;4938887;28;92550;-73
2023/02/01 10:46:43;;;;;;;14.98;3.00;;;8.40;99.90;;;;;;4939085;28;93258;-73
2023/02/01 10:49:19;;;;;;;15.55;3.85;;;8.40;99.90;;;;;;4937711;28;95984;-73
2023/02/01 10:52:10;;;;;;;12.57;3.03;;;8.40;99.90;;;;;;4939382;28;92948;-73
2023/02/01 10:54:39;;;;;;;9.80;3.10;;;8.40;99.90;;;;;;4937808;28;92520;-73
2023/02/01 10:57:29;;;;;;;17.25;3.25;;;8.30;99.90;;;;;;4953968;28;93214;-73
2023/02/01 10:59:56;;;;;;;13.70;3.22;;;8.40;99.90;;;;;;4939186;28;93188;-73
2023/02/01 11:02:34;;;;;;;16.83;2.70;;;8.30;99.90;;;;;;4937672;28;92515;-73
2023/02/01 11:05:05;;;;;;;13.80;3.00;;;8.50;99.90;;;;;;4953100;28;92511;-73
2023/02/01 11:07:32;;;;;;;16.20;3.10;;;8.50;99.90;;;;;;4937537;28;95704;-73
2023/02/01 11:09:59;;;;;;;13.80;2.22;;;8.60;99.90;;;;;;4936977;28;98016;-73
2023/02/01 11:12:33;;;;;;;12.15;2.35;;;8.60;99.90;;;;;;4937664;28;92512;-73
2023/02/01 11:15:21;;;;;;;7.90;2.45;;;8.60;99.90;;;;;;4939086;28;92441;-73
2023/02/01 11:17:51;;;;;;;16.20;3.08;;;8.60;99.90;;;;;;4938757;28;93396;-73
2023/02/01 11:20:20;;;;;;;15.27;2.67;;;8.60;99.90;;;;;;4938311;28;92856;-73
2023/02/01 11:22:56;;;;;;;18.80;2.85;;;8.60;99.90;;;;;;4938620;28;92394;-73
2023/02/01 11:25:24;;;;;;;15.38;2.90;;;8.60;99.90;;;;;;4937781;28;91751;-74
2023/02/01 11:27:54;;;;;;;16.58;4.35;;;8.70;99.90;;;;;;4938481;28;93132;-73
2023/02/01 11:30:40;;;;;;;10.40;2.85;;;8.70;99.90;;;;;;4938290;28;93052;-73
2023/02/01 11:33:14;;;;;;;13.63;3.28;;;8.80;99.90;;;;;;4952361;28;94829;-73
2023/02/01 11:35:42;;;;;;;13.23;2.90;;;8.80;99.90;;;;;;4937207;28;93317;-74
2023/02/01 11:38:31;;;;;;;16.55;3.60;;;8.90;99.90;;;;;;4937948;28;93196;-73
2023/02/01 11:41:19;;;;;;;17.05;4.22;;;9.00;99.90;;;;;;4938046;28;92956;-73
2023/02/01 11:43:58;;;;;;;16.42;3.40;;;9.00;99.90;;;;;;4938726;28;92335;-74
2023/02/01 11:46:33;;;;;;;16.55;2.95;;;9.00;99.90;;;;;;4938522;28;92507;-73
2023/02/01 11:49:25;;;;;;;12.68;2.70;;;9.00;99.90;;;;;;4936663;28;95890;-73
2023/02/01 11:52:16;;;;;;;15.10;3.60;;;9.00;99.90;;;;;;4937156;28;95514;-73
2023/02/01 11:54:43;;;;;;;10.35;2.92;;;9.10;99.90;;;;;;4937007;28;92532;-73
2023/02/01 11:57:25;;;;;;;14.07;2.85;;;9.20;99.90;;;;;;4938041;28;92467;-73
2023/02/01 12:00:06;;;;;;;18.17;3.40;;;9.40;99.90;;;;;;4935685;28;95564;-73
2023/02/01 12:03:09;;;;;;;16.52;2.58;;;9.50;99.90;;;;;;4935712;28;95013;-73
2023/02/01 12:05:57;;;;;;;14.05;3.15;;;9.50;99.90;;;;;;4935840;28;92485;-73
2023/02/01 12:08:41;;;;;;;14.02;3.83;;;9.40;99.90;;;;;;4937805;28;92337;-73
2023/02/01 12:11:11;;;;;;;;;;;9.30;99.90;;;;;;4937050;28;93236;-73
2023/02/01 12:13:53;;;;;;;11.70;3.30;;;9.20;99.90;;;;;;4938968;28;92732;-74
2023/02/01 12:16:34;;;;;;;12.07;3.03;;;9.10;99.90;;;;;;4936807;28;92428;-73
2023/02/01 12:19:20;;;;;;;16.88;3.83;;;9.10;99.90;;;;;;4938364;28;91725;-74
2023/02/01 12:22:28;;;;;;;17.30;4.18;;;9.10;99.90;;;;;;4936295;28;95648;-73
2023/02/01 12:25:04;;;;;;;13.07;3.03;;;9.10;99.90;;;;;;4930864;28;95007;-73
2023/02/01 12:27:54;;;;;;;12.82;3.08;;;9.00;99.90;;;;;;4935183;28;94854;-73
2023/02/01 12:30:46;;;;;;;16.38;3.97;;;9.10;99.90;;;;;;4932926;28;92473;-74
2023/02/01 12:33:20;;;;;;;17.38;3.45;;;9.20;99.90;;;;;;4936049;28;93231;-73
2023/02/01 12:36:10;;;;;;;18.85;3.63;;;9.40;99.90;;;;;;4937503;28;93084;-74
2023/02/01 12:38:46;;;;;;;11.18;3.83;;;9.50;99.90;;;;;;4937456;28;92439;-73
2023/02/01 12:41:19;;;;;;;12.68;2.92;;;9.50;99.90;;;;;;4935454;28;92473;-73
2023/02/01 12:43:57;;;;;;;21.90;4.72;;;9.70;99.90;;;;;;4935949;28;95689;-73
2023/02/01 12:46:37;;;;;;;13.30;3.75;;;9.80;99.90;;;;;;4936512;28;92863;-73
2023/02/01 12:50:01;;;;;;;12.93;4.05;;;9.90;99.90;;;;;;4936189;28;92562;-73
2023/02/01 12:52:35;;;;;;;13.65;3.03;;;10.10;99.90;;;;;;4934647;28;92453;-73
2023/02/01 12:55:23;;;;;;;15.45;3.30;;;10.30;99.90;;;;;;4934055;28;95763;-73
2023/02/01 12:58:11;;;;;;;12.50;3.15;;;10.50;99.90;;;;;;4936588;28;95739;-73
2023/02/01 13:00:43;;;;;;;17.58;3.50;;;10.30;99.90;;;;;;4941807;28;92432;-74
2023/02/01 13:03:39;;;;;;;14.05;3.25;;;10.10;99.90;;;;;;4941805;28;92480;-73
2023/02/01 13:06:09;;;;;;;14.63;3.28;;;10.10;99.90;;;;;;4937233;28;93075;-73
2023/02/01 13:08:47;;;;;;;14.00;3.22;;;9.90;99.90;;;;;;4936704;28;93236;-73
2023/02/01 13:11:37;;;;;;;19.48;4.38;;;9.90;99.90;;;;;;4937238;28;92449;-73
2023/02/01 13:14:18;;;;;;;17.73;4.68;;;10.10;99.90;;;;;;4936003;28;91823;-74
2023/02/01 13:17:17;;;;;;;17.10;3.70;;;10.10;99.90;;;;;;4937018;28;93184;-74
2023/02/01 13:19:52;;;;;;;22.90;3.53;;;10.10;99.90;;;;;;4936913;28;92972;-73
2023/02/01 13:22:36;;;;;;;20.42;3.78;;;10.10;99.90;;;;;;4936060;28;95319;-73
2023/02/01 13:25:08;;;;;;;;;;;10.10;99.90;;;;;;4936021;28;92398;-73
2023/02/01 13:27:35;;;;;;;18.33;3.78;;;10.10;99.90;;;;;;4937686;28;93628;-73
2023/02/01 13:30:25;;;;;;;16.55;2.97;;;10.20;99.90;;;;;;4935326;28;95707;-73
2023/02/01 13:33:11;;;;;;;19.50;3.17;;;10.40;99.90;;;;;;4935341;28;92576;-73
2023/02/01 13:36:24;;;;;;;17.05;4.18;;;10.70;99.90;;;;;;4936898;28;93429;-73
2023/02/01 13:39:12;;;;;;;16.60;3.22;;;10.60;99.90;;;;;;4936854;28;93269;-73
2023/02/01 13:41:51;;;;;;;17.58;2.90;;;10.50;99.90;;;;;;4935703;28;92980;-73
2023/02/01 13:44:28;;;;;;;14.52;3.35;;;10.40;99.90;;;;;;4935300;28;92530;-73